Time;durP1;ratioP1;P1;durP2;ratioP2;P2;SDS_P1;SDS_P2;PMS_P1;PMS_P2;Temp;Humidity;BMP_temperature;BMP_pressure;BME280_temperature;BME280_humidity;BME280_pressure;Samples;Min_cycle;Max_cycle;Signal;HPM_P1;HPM_P2
2021/10/07 00:00:29;;;;;;;3.00;1.47;;;;;;;;;;10212242;28;20133;-63
2021/10/07 00:05:26;;;;;;;2.53;1.60;;;;;;;;;;10206459;28;20085;-62
2021/10/07 00:10:24;;;;;;;2.07;0.80;;;;;;;;;;10208153;28;20034;-62
2021/10/07 00:15:21;;;;;;;0.63;0.53;;;;;;;;;;10209734;28;20034;-63
2021/10/07 00:20:18;;;;;;;0.60;0.60;;;;;;;;;;10208289;28;20522;-62
2021/10/07 00:25:16;;;;;;;0.10;0.10;;;;;;;;;;10211497;28;20034;-61
2021/10/07 00:30:19;;;;;;;1.27;0.50;;;;;;;;;;10211636;28;20072;-62
2021/10/07 00:40:32;;;;;;;0.20;0.20;;;;;;;;;;10207414;28;20077;-64
2021/10/07 00:45:30;;;;;;;0.80;0.33;;;;;;;;;;10215637;28;20110;-62
2021/10/07 00:50:27;;;;;;;0.23;0.20;;;;;;;;;;10192842;28;20036;-63
2021/10/07 00:55:25;;;;;;;0.63;0.63;;;;;;;;;;10209154;28;20042;-63
2021/10/07 01:00:22;;;;;;;0.37;0.27;;;;;;;;;;10212242;28;20042;-63
2021/10/07 01:05:21;;;;;;;0.47;0.30;;;;;;;;;;10212087;28;20491;-64
2021/10/07 01:10:19;;;;;;;0.45;0.20;;;;;;;;;;10196476;28;20038;-62
2021/10/07 01:15:18;;;;;;;0.20;0.20;;;;;;;;;;10212870;28;20046;-62
2021/10/07 01:20:17;;;;;;;0.50;0.47;;;;;;;;;;10206370;28;20923;-62
2021/10/07 01:25:14;;;;;;;0.57;0.57;;;;;;;;;;10208737;28;20050;-62
2021/10/07 01:30:12;;;;;;;0.63;0.23;;;;;;;;;;10209330;28;20486;-62
2021/10/07 01:35:09;;;;;;;0.30;0.30;;;;;;;;;;10214275;28;20057;-63
2021/10/07 01:40:08;;;;;;;0.50;0.47;;;;;;;;;;10202448;28;20042;-62
2021/10/07 01:45:07;;;;;;;2.80;0.30;;;;;;;;;;10215487;28;20026;-63
2021/10/07 01:50:06;;;;;;;0.10;0.10;;;;;;;;;;10222380;28;20041;-63
2021/10/07 01:55:04;;;;;;;0.30;0.30;;;;;;;;;;10218637;28;20125;-63
2021/10/07 02:00:02;;;;;;;0.30;0.30;;;;;;;;;;10198040;28;20452;-63
2021/10/07 02:05:09;;;;;;;0.43;0.43;;;;;;;;;;10210418;28;20585;-62
2021/10/07 02:10:10;;;;;;;0.50;0.50;;;;;;;;;;10209432;28;20109;-62
2021/10/07 02:15:07;;;;;;;0.10;0.10;;;;;;;;;;10224066;28;20427;-62
2021/10/07 02:20:07;;;;;;;0.53;0.40;;;;;;;;;;10214259;28;20045;-62
2021/10/07 02:25:05;;;;;;;0.38;0.38;;;;;;;;;;10199810;28;20043;-63
2021/10/07 02:30:04;;;;;;;0.40;0.40;;;;;;;;;;10212587;28;20519;-62
2021/10/07 02:35:04;;;;;;;0.80;0.40;;;;;;;;;;10212964;28;20054;-61
2021/10/07 02:40:02;;;;;;;0.38;0.38;;;;;;;;;;10223480;28;20041;-60
2021/10/07 02:45:00;;;;;;;;;;;;;;;;;;10207825;28;20188;-59
2021/10/07 02:49:57;;;;;;;0.38;0.38;;;;;;;;;;10214678;28;20660;-59
2021/10/07 02:54:54;;;;;;;0.60;0.57;;;;;;;;;;10218228;28;20046;-60
2021/10/07 02:59:52;;;;;;;0.63;0.57;;;;;;;;;;10225378;28;20038;-60
2021/10/07 03:04:52;;;;;;;0.73;0.73;;;;;;;;;;10222797;28;20092;-60
2021/10/07 03:09:49;;;;;;;0.50;0.50;;;;;;;;;;10229629;28;20038;-57
2021/10/07 03:14:47;;;;;;;0.73;0.50;;;;;;;;;;10226684;28;20030;-58
2021/10/07 03:19:44;;;;;;;0.93;0.50;;;;;;;;;;10231833;28;20034;-61
2021/10/07 03:24:42;;;;;;;0.77;0.50;;;;;;;;;;10217775;28;20167;-60
2021/10/07 03:29:40;;;;;;;0.80;0.50;;;;;;;;;;10193138;28;20053;-61
2021/10/07 03:34:37;;;;;;;0.40;0.40;;;;;;;;;;10207902;28;20511;-59
2021/10/07 03:39:34;;;;;;;1.30;0.40;;;;;;;;;;10210099;28;20038;-59
2021/10/07 03:44:32;;;;;;;0.50;0.50;;;;;;;;;;10222541;28;20046;-60
2021/10/07 03:49:29;;;;;;;0.83;0.50;;;;;;;;;;10215981;28;20091;-61
2021/10/07 03:54:27;;;;;;;0.40;0.40;;;;;;;;;;10203191;28;20046;-60
2021/10/07 03:59:24;;;;;;;0.47;0.47;;;;;;;;;;10209858;28;20034;-60
2021/10/07 04:04:21;;;;;;;0.47;0.47;;;;;;;;;;10204110;28;20401;-61
2021/10/07 04:09:19;;;;;;;0.60;0.60;;;;;;;;;;10201741;28;20142;-61
2021/10/07 04:14:16;;;;;;;1.27;0.80;;;;;;;;;;10214404;28;20041;-59
2021/10/07 04:19:13;;;;;;;1.37;0.90;;;;;;;;;;10186311;28;20684;-59
2021/10/07 04:24:11;;;;;;;1.17;1.07;;;;;;;;;;10194609;28;20175;-61
2021/10/07 04:29:08;;;;;;;1.00;0.90;;;;;;;;;;10199512;28;20046;-60
2021/10/07 04:34:07;;;;;;;2.43;0.73;;;;;;;;;;10208972;28;20842;-63
2021/10/07 04:39:04;;;;;;;1.63;1.02;;;;;;;;;;10188373;28;20048;-62
2021/10/07 04:44:02;;;;;;;1.17;0.80;;;;;;;;;;10207736;28;20031;-61
2021/10/07 04:48:59;;;;;;;1.83;0.70;;;;;;;;;;10210472;28;20034;-62
2021/10/07 04:53:57;;;;;;;1.80;0.97;;;;;;;;;;10197639;28;20042;-61
2021/10/07 04:58:54;;;;;;;1.93;0.93;;;;;;;;;;10193665;28;20121;-62
2021/10/07 05:03:51;;;;;;;1.53;0.90;;;;;;;;;;10192107;28;20042;-63
2021/10/07 05:08:49;;;;;;;1.27;0.93;;;;;;;;;;10199343;28;20057;-63
2021/10/07 05:13:46;;;;;;;1.03;1.00;;;;;;;;;;10190280;28;20037;-62
2021/10/07 05:18:44;;;;;;;2.67;0.87;;;;;;;;;;10199257;28;20475;-59
2021/10/07 05:23:41;;;;;;;2.67;0.90;;;;;;;;;;10195726;28;20034;-61
2021/10/07 05:28:42;;;;;;;2.17;0.87;;;;;;;;;;10184338;28;20181;-61
2021/10/07 05:33:39;;;;;;;1.30;1.08;;;;;;;;;;10189365;28;20100;-61
2021/10/07 05:38:36;;;;;;;1.20;1.10;;;;;;;;;;10177093;28;20038;-62
2021/10/07 05:43:34;;;;;;;1.17;1.07;;;;;;;;;;10188971;28;20046;-63
2021/10/07 05:48:32;;;;;;;0.83;0.73;;;;;;;;;;10188634;28;20035;-61
2021/10/07 05:53:29;;;;;;;3.00;1.07;;;;;;;;;;10210577;28;20081;-63
2021/10/07 05:58:27;;;;;;;1.27;0.83;;;;;;;;;;10208668;28;20042;-61
2021/10/07 06:03:24;;;;;;;3.28;1.02;;;;;;;;;;10205982;28;20061;-61
2021/10/07 06:08:22;;;;;;;1.27;0.97;;;;;;;;;;10188454;28;20045;-62
2021/10/07 06:13:19;;;;;;;1.03;0.83;;;;;;;;;;10186096;28;20617;-62
2021/10/07 06:18:17;;;;;;;1.03;0.80;;;;;;;;;;10193704;28;20117;-62
2021/10/07 06:23:14;;;;;;;1.10;0.85;;;;;;;;;;10185932;28;20038;-62
2021/10/07 06:28:12;;;;;;;2.57;0.87;;;;;;;;;;10191039;28;20039;-61
2021/10/07 06:33:09;;;;;;;1.23;0.77;;;;;;;;;;10195546;28;20097;-63
2021/10/07 06:38:07;;;;;;;1.53;1.10;;;;;;;;;;10191619;28;20643;-65
2021/10/07 06:43:04;;;;;;;2.37;1.40;;;;;;;;;;10216688;28;20415;-63
2021/10/07 06:48:02;;;;;;;2.23;1.33;;;;;;;;;;10184463;28;20046;-62
2021/10/07 06:52:59;;;;;;;3.37;0.97;;;;;;;;;;10208721;28;20039;-63
2021/10/07 06:57:57;;;;;;;1.97;1.20;;;;;;;;;;10209477;28;20322;-63
2021/10/07 07:02:55;;;;;;;1.53;1.00;;;;;;;;;;10211010;28;20053;-62
2021/10/07 07:07:53;;;;;;;0.90;0.85;;;;;;;;;;10207578;28;20046;-63
2021/10/07 07:12:51;;;;;;;1.35;0.90;;;;;;;;;;10213800;28;20034;-62
2021/10/07 07:17:48;;;;;;;2.38;1.67;;;;;;;;;;10207565;28;20038;-60
2021/10/07 07:22:45;;;;;;;3.20;1.80;;;;;;;;;;10200300;28;20465;-62
2021/10/07 07:27:44;;;;;;;3.17;1.93;;;;;;;;;;10204581;28;20042;-63
2021/10/07 07:32:41;;;;;;;4.80;1.65;;;;;;;;;;10202506;28;20038;-63
2021/10/07 07:37:39;;;;;;;4.50;1.70;;;;;;;;;;10199416;28;20494;-61
2021/10/07 07:42:37;;;;;;;5.13;1.92;;;;;;;;;;10197090;28;20061;-61
2021/10/07 07:47:35;;;;;;;1.87;1.70;;;;;;;;;;10202676;28;20058;-59
2021/10/07 07:52:33;;;;;;;3.30;2.10;;;;;;;;;;10207655;28;20042;-61
2021/10/07 07:57:30;;;;;;;2.93;1.90;;;;;;;;;;10187460;28;20396;-60
2021/10/07 08:02:28;;;;;;;3.97;1.80;;;;;;;;;;10199628;28;20412;-60
2021/10/07 08:07:27;;;;;;;3.73;1.50;;;;;;;;;;10202518;28;20038;-61
2021/10/07 08:12:24;;;;;;;4.40;2.20;;;;;;;;;;10199718;28;20034;-62
2021/10/07 08:17:22;;;;;;;8.40;2.00;;;;;;;;;;10204503;28;20065;-61
2021/10/07 08:22:21;;;;;;;3.03;2.33;;;;;;;;;;10210243;28;20042;-61
2021/10/07 08:27:19;;;;;;;4.22;2.15;;;;;;;;;;10209486;28;20038;-60
2021/10/07 08:32:16;;;;;;;1.87;1.67;;;;;;;;;;10208640;28;20506;-62
2021/10/07 08:37:14;;;;;;;5.40;2.67;;;;;;;;;;10211236;28;20046;-61
2021/10/07 08:42:11;;;;;;;3.87;2.40;;;;;;;;;;10188687;28;20127;-61
2021/10/07 08:47:09;;;;;;;10.50;2.60;;;;;;;;;;10204736;28;20048;-62
2021/10/07 08:52:06;;;;;;;2.37;1.80;;;;;;;;;;10184459;28;20518;-62
2021/10/07 08:57:04;;;;;;;3.20;2.10;;;;;;;;;;10188405;28;20736;-61
2021/10/07 09:02:04;;;;;;;4.45;2.10;;;;;;;;;;10203918;28;20247;-61
2021/10/07 09:07:04;;;;;;;4.65;2.63;;;;;;;;;;10208097;28;20149;-62
2021/10/07 09:12:03;;;;;;;10.02;3.25;;;;;;;;;;10193348;28;20129;-62
2021/10/07 09:17:01;;;;;;;2.88;1.17;;;;;;;;;;10200419;28;20042;-61
2021/10/07 09:22:18;;;;;;;2.53;1.80;;;;;;;;;;10202628;28;20066;-62
2021/10/07 09:27:20;;;;;;;1.98;1.17;;;;;;;;;;10192158;28;20042;-62
2021/10/07 09:32:26;;;;;;;2.65;1.10;;;;;;;;;;10200141;28;20374;-61
2021/10/07 09:37:27;;;;;;;3.30;1.55;;;;;;;;;;10196506;28;20547;-61
2021/10/07 09:42:26;;;;;;;2.03;0.95;;;;;;;;;;10194425;28;20133;-61
2021/10/07 09:47:28;;;;;;;5.47;2.80;;;;;;;;;;10198500;28;20035;-61
2021/10/07 09:52:27;;;;;;;2.33;1.60;;;;;;;;;;10188313;28;20067;-61
2021/10/07 09:57:24;;;;;;;2.22;1.25;;;;;;;;;;10192374;28;20511;-61
2021/10/07 10:02:22;;;;;;;1.60;1.20;;;;;;;;;;10197749;28;20053;-61
2021/10/07 10:07:19;;;;;;;1.80;1.03;;;;;;;;;;10195656;28;20508;-62
2021/10/07 10:12:17;;;;;;;3.67;1.97;;;;;;;;;;10204717;28;20034;-61
2021/10/07 10:17:14;;;;;;;3.93;2.13;;;;;;;;;;10203547;28;20058;-61
2021/10/07 10:22:12;;;;;;;1.67;1.17;;;;;;;;;;10197862;28;20053;-63
2021/10/07 10:27:09;;;;;;;;;;;;;;;;;;10209481;28;20065;-63
2021/10/07 10:32:08;;;;;;;1.48;0.77;;;;;;;;;;10208462;28;19953;-62
2021/10/07 10:37:06;;;;;;;0.82;0.55;;;;;;;;;;10200640;28;20053;-62
2021/10/07 10:42:05;;;;;;;2.70;1.27;;;;;;;;;;10199238;28;20042;-62
2021/10/07 10:47:08;;;;;;;11.93;7.68;;;;;;;;;;10187802;28;20274;-59
2021/10/07 10:52:11;;;;;;;11.13;7.00;;;;;;;;;;10193741;28;20037;-62
2021/10/07 10:57:23;;;;;;;1.75;1.65;;;;;;;;;;10187257;28;20504;-62
2021/10/07 11:02:22;;;;;;;3.10;1.42;;;;;;;;;;10201690;28;20133;-62
2021/10/07 11:07:20;;;;;;;2.38;1.52;;;;;;;;;;10194012;28;20062;-62
2021/10/07 11:12:18;;;;;;;2.25;1.48;;;;;;;;;;10205087;28;20125;-61
2021/10/07 11:17:18;;;;;;;10.00;7.67;;;;;;;;;;10190389;28;20137;-62
2021/10/07 11:22:15;;;;;;;4.80;3.63;;;;;;;;;;10185862;28;20559;-61
2021/10/07 11:27:12;;;;;;;11.63;5.63;;;;;;;;;;10201410;28;20046;-62
2021/10/07 11:32:13;;;;;;;2.80;2.20;;;;;;;;;;10197790;28;20489;-62
2021/10/07 11:37:11;;;;;;;7.60;3.63;;;;;;;;;;10209480;28;20122;-62
2021/10/07 11:42:08;;;;;;;6.80;4.03;;;;;;;;;;10197399;28;20117;-62
2021/10/07 11:47:13;;;;;;;9.93;7.83;;;;;;;;;;10201787;28;20065;-63
2021/10/07 11:52:13;;;;;;;2.67;2.33;;;;;;;;;;10205600;28;20046;-63
2021/10/07 11:57:10;;;;;;;3.88;2.72;;;;;;;;;;10203084;28;20050;-62
2021/10/07 12:02:11;;;;;;;2.67;1.63;;;;;;;;;;10204084;28;20041;-62
2021/10/07 12:07:13;;;;;;;1.23;1.15;;;;;;;;;;10192893;28;20275;-61
2021/10/07 12:12:11;;;;;;;4.00;1.63;;;;;;;;;;10196651;28;20031;-61
2021/10/07 12:17:08;;;;;;;4.90;2.77;;;;;;;;;;10205808;28;20037;-63
2021/10/07 12:22:06;;;;;;;5.73;2.30;;;;;;;;;;10199254;28;20084;-63
2021/10/07 12:27:03;;;;;;;;;;;;;;;;;;10190391;28;20168;-62
2021/10/07 12:32:05;;;;;;;7.27;3.13;;;;;;;;;;10201384;28;20057;-64
2021/10/07 12:37:05;;;;;;;4.20;2.92;;;;;;;;;;10194451;28;20503;-63
2021/10/07 12:42:07;;;;;;;6.20;4.68;;;;;;;;;;10211851;28;20053;-63
2021/10/07 12:47:06;;;;;;;7.72;5.50;;;;;;;;;;10213932;28;20030;-62
2021/10/07 12:52:12;;;;;;;1.58;1.33;;;;;;;;;;10201764;28;20057;-62
2021/10/07 12:57:10;;;;;;;3.42;1.98;;;;;;;;;;10204340;28;20054;-63
2021/10/07 13:02:07;;;;;;;;;;;;;;;;;;10199119;28;20058;-62
2021/10/07 13:07:07;;;;;;;5.80;4.10;;;;;;;;;;10200608;28;19913;-63
2021/10/07 13:12:04;;;;;;;;;;;;;;;;;;10211099;28;20380;-62
2021/10/07 13:17:01;;;;;;;3.35;1.23;;;;;;;;;;10192347;28;19921;-61
2021/10/07 13:21:59;;;;;;;;;;;;;;;;;;10202601;28;20066;-62
2021/10/07 13:27:01;;;;;;;8.77;5.53;;;;;;;;;;10210176;28;19924;-60
2021/10/07 13:31:59;;;;;;;7.72;4.32;;;;;;;;;;10201171;28;20125;-63
2021/10/07 13:36:57;;;;;;;5.15;2.53;;;;;;;;;;10196253;28;20035;-60
2021/10/07 13:41:54;;;;;;;;;;;;;;;;;;10184421;28;20057;-62
2021/10/07 13:46:52;;;;;;;3.47;2.40;;;;;;;;;;10217860;28;20367;-62
2021/10/07 13:51:49;;;;;;;;;;;;;;;;;;10200305;28;20121;-64
2021/10/07 13:56:46;;;;;;;3.42;2.30;;;;;;;;;;10215936;28;20347;-62
2021/10/07 14:01:44;;;;;;;;;;;;;;;;;;10214418;28;20240;-64
2021/10/07 14:06:42;;;;;;;1.80;1.00;;;;;;;;;;10214704;28;20018;-62
2021/10/07 14:11:40;;;;;;;4.63;3.10;;;;;;;;;;10215587;28;20104;-63
2021/10/07 14:16:37;;;;;;;3.28;2.35;;;;;;;;;;10206531;28;20034;-63
2021/10/07 14:21:34;;;;;;;;;;;;;;;;;;10209502;28;20045;-63
2021/10/07 14:26:32;;;;;;;4.72;3.17;;;;;;;;;;10208571;28;19922;-62
2021/10/07 14:31:29;;;;;;;5.13;3.00;;;;;;;;;;10213862;28;20465;-63
2021/10/07 14:36:27;;;;;;;3.58;2.50;;;;;;;;;;10199120;28;20046;-63
2021/10/07 14:41:24;;;;;;;5.22;2.35;;;;;;;;;;10198892;28;20060;-63
2021/10/07 14:46:25;;;;;;;6.03;3.28;;;;;;;;;;10204165;28;20576;-62
2021/10/07 14:51:22;;;;;;;4.13;2.60;;;;;;;;;;10206125;28;20042;-61
2021/10/07 14:56:20;;;;;;;3.60;2.38;;;;;;;;;;10193920;28;20443;-61
2021/10/07 15:01:17;;;;;;;1.27;0.83;;;;;;;;;;10193696;28;20069;-63
2021/10/07 15:06:15;;;;;;;1.33;1.13;;;;;;;;;;10197024;28;20116;-64
2021/10/07 15:11:12;;;;;;;2.80;1.83;;;;;;;;;;10208192;28;20289;-63
2021/10/07 15:16:12;;;;;;;0.70;0.63;;;;;;;;;;10193568;28;20043;-62
2021/10/07 15:21:12;;;;;;;1.98;1.20;;;;;;;;;;10196274;28;20528;-62
2021/10/07 15:26:09;;;;;;;5.45;2.63;;;;;;;;;;10212227;28;20796;-63
2021/10/07 15:31:07;;;;;;;2.77;2.20;;;;;;;;;;10201248;28;20030;-63
2021/10/07 15:36:04;;;;;;;0.43;0.43;;;;;;;;;;10192923;28;20285;-62
2021/10/07 15:41:02;;;;;;;2.57;1.40;;;;;;;;;;10212695;28;20054;-61
2021/10/07 15:46:00;;;;;;;2.97;1.80;;;;;;;;;;10212516;28;20042;-62
2021/10/07 15:50:57;;;;;;;2.47;1.13;;;;;;;;;;10192550;28;20046;-62
2021/10/07 15:55:55;;;;;;;3.78;1.90;;;;;;;;;;10199806;28;20049;-63
2021/10/07 16:00:53;;;;;;;6.27;2.27;;;;;;;;;;10193954;28;20043;-63
2021/10/07 16:05:59;;;;;;;4.47;3.00;;;;;;;;;;10197150;28;20030;-60
2021/10/07 16:10:57;;;;;;;3.50;1.50;;;;;;;;;;10187035;28;20539;-62
2021/10/07 16:15:55;;;;;;;4.97;2.58;;;;;;;;;;10201437;28;20070;-63
2021/10/07 16:20:56;;;;;;;0.20;0.20;;;;;;;;;;10200568;28;20056;-64
2021/10/07 16:25:54;;;;;;;0.35;0.35;;;;;;;;;;10200612;28;20139;-64
2021/10/07 16:30:52;;;;;;;1.02;0.93;;;;;;;;;;10209434;28;20458;-62
2021/10/07 16:35:50;;;;;;;0.10;0.10;;;;;;;;;;10205556;28;20042;-62
2021/10/07 16:40:48;;;;;;;0.47;0.30;;;;;;;;;;10198117;28;20508;-62
2021/10/07 16:45:45;;;;;;;0.45;0.45;;;;;;;;;;10177418;28;20420;-62
2021/10/07 16:50:43;;;;;;;2.43;0.90;;;;;;;;;;10198617;28;20068;-62
2021/10/07 16:55:40;;;;;;;2.65;0.80;;;;;;;;;;10199829;28;20030;-62
2021/10/07 17:00:38;;;;;;;0.53;0.50;;;;;;;;;;10197459;28;20034;-63
2021/10/07 17:05:35;;;;;;;0.37;0.37;;;;;;;;;;10206834;28;20035;-62
2021/10/07 17:10:32;;;;;;;1.60;0.20;;;;;;;;;;10191941;28;20030;-63
2021/10/07 17:15:30;;;;;;;7.03;1.13;;;;;;;;;;10193657;28;20035;-63
2021/10/07 17:20:27;;;;;;;1.87;0.63;;;;;;;;;;10199626;28;20070;-62
2021/10/07 17:25:27;;;;;;;3.03;1.13;;;;;;;;;;10212307;28;20034;-64
2021/10/07 17:30:26;;;;;;;11.20;3.45;;;;;;;;;;10193093;28;20030;-63
2021/10/07 17:35:24;;;;;;;2.65;2.45;;;;;;;;;;10206419;28;20046;-63
2021/10/07 17:40:23;;;;;;;1.02;0.93;;;;;;;;;;10195084;28;20038;-61
2021/10/07 17:45:21;;;;;;;3.42;1.17;;;;;;;;;;10192936;28;20519;-62
2021/10/07 17:50:19;;;;;;;1.88;1.20;;;;;;;;;;10209632;28;20038;-61
2021/10/07 17:55:16;;;;;;;1.48;1.15;;;;;;;;;;10196606;28;20048;-62
2021/10/07 18:00:14;;;;;;;1.53;1.43;;;;;;;;;;10212268;28;20077;-62
2021/10/07 18:05:16;;;;;;;2.20;1.15;;;;;;;;;;10204430;28;20038;-62
2021/10/07 18:10:14;;;;;;;1.07;0.97;;;;;;;;;;10196914;28;20038;-63
2021/10/07 18:15:12;;;;;;;2.15;1.25;;;;;;;;;;10202787;28;20039;-60
2021/10/07 18:20:11;;;;;;;1.20;1.05;;;;;;;;;;10176260;28;20031;-62
2021/10/07 18:25:13;;;;;;;1.98;1.33;;;;;;;;;;10202127;28;20038;-61
2021/10/07 18:30:11;;;;;;;2.83;1.92;;;;;;;;;;10204244;28;20546;-61
2021/10/07 18:35:12;;;;;;;6.75;3.42;;;;;;;;;;10202380;28;20464;-61
2021/10/07 18:40:11;;;;;;;0.95;0.60;;;;;;;;;;10195175;28;20530;-62
2021/10/07 18:45:09;;;;;;;2.35;1.58;;;;;;;;;;10195580;28;20034;-62
2021/10/07 18:50:07;;;;;;;1.23;1.13;;;;;;;;;;10199163;28;20069;-62
2021/10/07 18:55:05;;;;;;;0.98;0.47;;;;;;;;;;10199022;28;20051;-62
2021/10/07 19:00:08;;;;;;;1.03;0.83;;;;;;;;;;10198044;28;20077;-62
2021/10/07 19:05:05;;;;;;;1.05;0.88;;;;;;;;;;10196742;28;20058;-62
2021/10/07 19:10:03;;;;;;;0.83;0.73;;;;;;;;;;10196183;28;20563;-60
2021/10/07 19:15:00;;;;;;;1.87;1.30;;;;;;;;;;10201245;28;20043;-62
2021/10/07 19:19:58;;;;;;;0.57;0.57;;;;;;;;;;10196058;28;20042;-61
2021/10/07 19:24:55;;;;;;;1.10;1.00;;;;;;;;;;10204869;28;20038;-62
2021/10/07 19:29:53;;;;;;;1.97;1.57;;;;;;;;;;10200965;28;20039;-62
2021/10/07 19:34:50;;;;;;;1.23;0.87;;;;;;;;;;10199331;28;20042;-61
2021/10/07 19:39:48;;;;;;;1.43;1.33;;;;;;;;;;10202194;28;20185;-63
2021/10/07 19:44:45;;;;;;;3.17;1.50;;;;;;;;;;10200178;28;20042;-62
2021/10/07 19:49:46;;;;;;;6.87;2.00;;;;;;;;;;10208898;28;20503;-62
2021/10/07 19:54:46;;;;;;;3.22;1.58;;;;;;;;;;10207082;28;20137;-62
2021/10/07 19:59:44;;;;;;;12.25;8.07;;;;;;;;;;10190085;28;20050;-61
2021/10/07 20:04:41;;;;;;;9.63;7.37;;;;;;;;;;10194245;28;20346;-60
2021/10/07 20:09:39;;;;;;;11.57;7.87;;;;;;;;;;10208367;28;20415;-62
2021/10/07 20:14:36;;;;;;;10.83;7.40;;;;;;;;;;10190819;28;20038;-63
2021/10/07 20:19:33;;;;;;;13.80;8.53;;;;;;;;;;10203687;28;20034;-62
2021/10/07 20:24:31;;;;;;;12.87;8.27;;;;;;;;;;10203509;28;20128;-63
2021/10/07 20:29:29;;;;;;;14.83;8.93;;;;;;;;;;10195208;28;20121;-64
2021/10/07 20:39:45;;;;;;;12.95;7.60;;;;;;;;;;10169868;28;20375;-62
2021/10/07 20:44:45;;;;;;;13.60;8.10;;;;;;;;;;10190094;28;20030;-62
2021/10/07 20:49:42;;;;;;;11.65;7.90;;;;;;;;;;10200434;28;20084;-63
2021/10/07 20:54:40;;;;;;;10.77;7.18;;;;;;;;;;10208902;28;20034;-63
2021/10/07 20:59:38;;;;;;;10.57;8.13;;;;;;;;;;10207117;28;20042;-62
2021/10/07 21:04:35;;;;;;;12.83;7.47;;;;;;;;;;10195782;28;20141;-63
2021/10/07 21:09:33;;;;;;;9.37;7.30;;;;;;;;;;10204021;28;20489;-64
2021/10/07 21:14:30;;;;;;;6.70;5.40;;;;;;;;;;10202319;28;20100;-64
2021/10/07 21:19:28;;;;;;;9.60;4.90;;;;;;;;;;10211942;28;20404;-61
2021/10/07 21:24:25;;;;;;;54.13;8.47;;;;;;;;;;10207370;28;20495;-62
2021/10/07 21:29:22;;;;;;;66.37;6.17;;;;;;;;;;10208690;28;20061;-59
2021/10/07 21:34:20;;;;;;;6.70;3.87;;;;;;;;;;10182750;28;20041;-61
2021/10/07 21:39:17;;;;;;;31.17;4.20;;;;;;;;;;10192972;28;20492;-61
2021/10/07 21:44:15;;;;;;;20.03;3.67;;;;;;;;;;10194773;28;20436;-63
2021/10/07 21:49:13;;;;;;;16.07;2.37;;;;;;;;;;10195886;28;20039;-60
2021/10/07 21:54:11;;;;;;;6.30;2.40;;;;;;;;;;10201585;28;20080;-61
2021/10/07 21:59:11;;;;;;;29.23;3.17;;;;;;;;;;10178648;28;20039;-61
2021/10/07 22:04:09;;;;;;;10.88;2.83;;;;;;;;;;10204691;28;20532;-60
2021/10/07 22:09:06;;;;;;;24.70;3.63;;;;;;;;;;10216624;28;20070;-60
2021/10/07 22:14:03;;;;;;;56.43;4.87;;;;;;;;;;10193189;28;20042;-61
2021/10/07 22:19:01;;;;;;;34.20;5.60;;;;;;;;;;10197329;28;20512;-60
2021/10/07 22:23:59;;;;;;;48.17;4.90;;;;;;;;;;10213676;28;20035;-60
2021/10/07 22:28:56;;;;;;;34.87;4.87;;;;;;;;;;10210234;28;20042;-60
2021/10/07 22:33:56;;;;;;;16.43;3.10;;;;;;;;;;10204261;28;20034;-60
2021/10/07 22:38:53;;;;;;;29.27;3.33;;;;;;;;;;10197250;28;20039;-61
2021/10/07 22:43:50;;;;;;;29.93;4.10;;;;;;;;;;10209940;28;20046;-62
2021/10/07 22:48:48;;;;;;;12.03;3.50;;;;;;;;;;10201567;28;20042;-60
2021/10/07 22:53:45;;;;;;;19.37;2.50;;;;;;;;;;10197168;28;20031;-59
2021/10/07 22:58:43;;;;;;;46.97;3.37;;;;;;;;;;10220076;28;20441;-60
2021/10/07 23:03:40;;;;;;;71.27;4.43;;;;;;;;;;10170184;28;20054;-60
2021/10/07 23:08:37;;;;;;;10.77;4.20;;;;;;;;;;10200038;28;20109;-61
2021/10/07 23:13:35;;;;;;;9.43;4.00;;;;;;;;;;10223678;28;20050;-61
2021/10/07 23:18:37;;;;;;;4.32;3.78;;;;;;;;;;10216934;28;20038;-61
2021/10/07 23:23:34;;;;;;;5.13;4.30;;;;;;;;;;10219210;28;20049;-62
2021/10/07 23:28:32;;;;;;;7.07;4.87;;;;;;;;;;10213926;28;20507;-60
2021/10/07 23:33:30;;;;;;;6.03;4.10;;;;;;;;;;10214077;28;20452;-61
2021/10/07 23:38:27;;;;;;;2.90;2.70;;;;;;;;;;10212815;28;20042;-61
2021/10/07 23:43:24;;;;;;;2.67;2.47;;;;;;;;;;10210778;28;20050;-61
2021/10/07 23:48:22;;;;;;;18.83;2.17;;;;;;;;;;10217547;28;20042;-60
2021/10/07 23:53:19;;;;;;;3.50;1.83;;;;;;;;;;10211685;28;20695;-60
2021/10/07 23:58:17;;;;;;;2.20;2.10;;;;;;;;;;10212269;28;20036;-61
